sensor_id;sensor_type;location;lat;lon;timestamp;pressure;altitude;pressure_sealevel;temperature;humidity
61742;BME280;47650;49.848;9.620;2023-02-14T00:00:04;101679.38;;;4.54;65.65
61742;BME280;47650;49.848;9.620;2023-02-14T00:02:33;101651.94;;;4.37;65.19
61742;BME280;47650;49.848;9.620;2023-02-14T00:04:59;101623.00;;;4.13;65.30
61742;BME280;47650;49.848;9.620;2023-02-14T00:07:33;101624.97;;;4.08;65.23
61742;BME280;47650;49.848;9.620;2023-02-14T00:09:59;101671.25;;;4.36;65.73
61742;BME280;47650;49.848;9.620;2023-02-14T00:12:26;101680.88;;;4.36;65.73
61742;BME280;47650;49.848;9.620;2023-02-14T00:14:51;101660.22;;;4.26;65.78
61742;BME280;47650;49.848;9.620;2023-02-14T00:17:53;101681.63;;;4.39;65.11
61742;BME280;47650;49.848;9.620;2023-02-14T00:20:23;101680.69;;;4.42;65.18
61742;BME280;47650;49.848;9.620;2023-02-14T00:22:56;101642.84;;;4.22;66.01
61742;BME280;47650;49.848;9.620;2023-02-14T00:25:22;101667.75;;;4.36;65.61
61742;BME280;47650;49.848;9.620;2023-02-14T00:27:47;101671.78;;;4.21;65.76
61742;BME280;47650;49.848;9.620;2023-02-14T00:30:14;101668.09;;;4.26;65.87
61742;BME280;47650;49.848;9.620;2023-02-14T00:32:42;101607.47;;;3.82;66.76
61742;BME280;47650;49.848;9.620;2023-02-14T00:35:09;101668.44;;;3.90;66.12
61742;BME280;47650;49.848;9.620;2023-02-14T00:37:35;101659.97;;;3.82;66.64
61742;BME280;47650;49.848;9.620;2023-02-14T00:40:01;101671.56;;;3.75;68.11
61742;BME280;47650;49.848;9.620;2023-02-14T00:42:29;101685.09;;;3.63;68.11
61742;BME280;47650;49.848;9.620;2023-02-14T00:44:56;101648.38;;;3.63;67.90
61742;BME280;47650;49.848;9.620;2023-02-14T00:47:21;101675.69;;;3.82;67.86
61742;BME280;47650;49.848;9.620;2023-02-14T00:50:08;101673.78;;;3.87;67.85
61742;BME280;47650;49.848;9.620;2023-02-14T00:52:34;101668.19;;;3.71;68.33
61742;BME280;47650;49.848;9.620;2023-02-14T00:54:59;101662.75;;;3.78;68.15
61742;BME280;47650;49.848;9.620;2023-02-14T00:57:32;101678.47;;;4.04;67.99
61742;BME280;47650;49.848;9.620;2023-02-14T00:59:59;101638.97;;;3.82;67.85
61742;BME280;47650;49.848;9.620;2023-02-14T01:02:24;101675.00;;;4.04;67.77
61742;BME280;47650;49.848;9.620;2023-02-14T01:04:52;101676.91;;;3.99;68.52
61742;BME280;47650;49.848;9.620;2023-02-14T01:07:29;101687.69;;;4.16;67.50
61742;BME280;47650;49.848;9.620;2023-02-14T01:09:54;101676.41;;;4.14;68.19
61742;BME280;47650;49.848;9.620;2023-02-14T01:12:19;101626.41;;;3.92;67.21
61742;BME280;47650;49.848;9.620;2023-02-14T01:14:45;101646.66;;;3.88;67.14
61742;BME280;47650;49.848;9.620;2023-02-14T01:17:16;101687.97;;;4.33;66.96
61742;BME280;47650;49.848;9.620;2023-02-14T01:19:41;101654.94;;;4.26;67.42
61742;BME280;47650;49.848;9.620;2023-02-14T01:22:36;101687.22;;;4.55;67.52
61742;BME280;47650;49.848;9.620;2023-02-14T01:25:02;101681.81;;;4.58;66.77
61742;BME280;47650;49.848;9.620;2023-02-14T01:27:27;101689.53;;;4.63;66.46
61742;BME280;47650;49.848;9.620;2023-02-14T01:29:53;101656.97;;;4.43;66.78
61742;BME280;47650;49.848;9.620;2023-02-14T01:32:18;101682.25;;;4.71;66.86
61742;BME280;47650;49.848;9.620;2023-02-14T01:34:45;101684.75;;;4.74;66.73
61742;BME280;47650;49.848;9.620;2023-02-14T01:37:18;101600.50;;;4.31;66.81
61742;BME280;47650;49.848;9.620;2023-02-14T01:39:57;101677.09;;;4.92;66.13
61742;BME280;47650;49.848;9.620;2023-02-14T01:42:32;101675.22;;;4.95;66.20
61742;BME280;47650;49.848;9.620;2023-02-14T01:45:18;101677.69;;;4.98;65.70
61742;BME280;47650;49.848;9.620;2023-02-14T01:47:55;101559.56;;;4.26;65.62
61742;BME280;47650;49.848;9.620;2023-02-14T01:50:33;101679.47;;;4.98;65.14
61742;BME280;47650;49.848;9.620;2023-02-14T01:53:17;101669.53;;;5.06;65.51
61742;BME280;47650;49.848;9.620;2023-02-14T01:56:03;101672.06;;;5.09;65.59
61742;BME280;47650;49.848;9.620;2023-02-14T01:58:45;101671.16;;;5.08;64.62
61742;BME280;47650;49.848;9.620;2023-02-14T02:01:19;101664.38;;;5.03;64.64
61742;BME280;47650;49.848;9.620;2023-02-14T02:03:51;101670.81;;;4.96;63.96
61742;BME280;47650;49.848;9.620;2023-02-14T02:06:29;101660.81;;;4.58;65.25
61742;BME280;47650;49.848;9.620;2023-02-14T02:09:15;101671.25;;;4.36;66.32
61742;BME280;47650;49.848;9.620;2023-02-14T02:11:43;101661.06;;;4.02;68.80
61742;BME280;47650;49.848;9.620;2023-02-14T02:14:20;101670.22;;;4.15;68.96
61742;BME280;47650;49.848;9.620;2023-02-14T02:17:14;101667.59;;;4.40;69.85
61742;BME280;47650;49.848;9.620;2023-02-14T02:20:02;101662.03;;;4.48;69.47
61742;BME280;47650;49.848;9.620;2023-02-14T02:31:31;101648.59;;;4.57;69.06
61742;BME280;47650;49.848;9.620;2023-02-14T02:45:40;101616.53;;;4.47;67.38
61742;BME280;47650;49.848;9.620;2023-02-14T02:48:43;101612.72;;;4.56;67.91
61742;BME280;47650;49.848;9.620;2023-02-14T02:51:18;101591.81;;;4.53;67.11
61742;BME280;47650;49.848;9.620;2023-02-14T02:54:13;101631.22;;;4.77;67.04
61742;BME280;47650;49.848;9.620;2023-02-14T02:56:50;101642.97;;;4.90;66.52
61742;BME280;47650;49.848;9.620;2023-02-14T02:59:36;101645.13;;;5.02;66.94
61742;BME280;47650;49.848;9.620;2023-02-14T03:02:17;101623.13;;;4.83;65.66
61742;BME280;47650;49.848;9.620;2023-02-14T03:04:53;101642.34;;;5.07;66.40
61742;BME280;47650;49.848;9.620;2023-02-14T03:07:37;101643.75;;;5.16;66.81
61742;BME280;47650;49.848;9.620;2023-02-14T03:10:27;101627.16;;;5.14;66.16
61742;BME280;47650;49.848;9.620;2023-02-14T03:13:27;101644.66;;;5.15;65.77
61742;BME280;47650;49.848;9.620;2023-02-14T03:16:07;101637.66;;;5.14;65.76
61742;BME280;47650;49.848;9.620;2023-02-14T03:19:03;101646.84;;;5.25;66.35
61742;BME280;47650;49.848;9.620;2023-02-14T03:25:20;101642.47;;;5.26;66.71
61742;BME280;47650;49.848;9.620;2023-02-14T03:30:46;101649.72;;;4.97;65.95
61742;BME280;47650;49.848;9.620;2023-02-14T03:33:46;101648.78;;;4.98;66.37
61742;BME280;47650;49.848;9.620;2023-02-14T03:36:21;101652.19;;;4.78;66.46
61742;BME280;47650;49.848;9.620;2023-02-14T03:42:30;101646.81;;;4.58;68.08
61742;BME280;47650;49.848;9.620;2023-02-14T03:44:59;101650.41;;;4.79;68.44
61742;BME280;47650;49.848;9.620;2023-02-14T03:47:30;101654.25;;;4.70;68.06
61742;BME280;47650;49.848;9.620;2023-02-14T03:50:01;101657.59;;;4.74;68.07
61742;BME280;47650;49.848;9.620;2023-02-14T03:52:28;101647.56;;;4.85;67.72
61742;BME280;47650;49.848;9.620;2023-02-14T03:55:02;101588.06;;;4.37;67.53
61742;BME280;47650;49.848;9.620;2023-02-14T04:00:29;101632.16;;;4.98;68.26
61742;BME280;47650;49.848;9.620;2023-02-14T04:03:05;101642.94;;;5.14;68.34
61742;BME280;47650;49.848;9.620;2023-02-14T04:05:45;101639.22;;;5.19;68.25
61742;BME280;47650;49.848;9.620;2023-02-14T04:08:27;101617.91;;;5.03;67.07
61742;BME280;47650;49.848;9.620;2023-02-14T04:10:55;101647.97;;;5.20;66.31
61742;BME280;47650;49.848;9.620;2023-02-14T04:13:27;101522.44;;;4.59;67.06
61742;BME280;47650;49.848;9.620;2023-02-14T04:15:58;101651.38;;;5.22;66.38
61742;BME280;47650;49.848;9.620;2023-02-14T04:18:34;101629.50;;;5.21;67.00
61742;BME280;47650;49.848;9.620;2023-02-14T04:21:18;101618.25;;;5.18;66.96
61742;BME280;47650;49.848;9.620;2023-02-14T04:23:45;101654.91;;;5.43;66.98
61742;BME280;47650;49.848;9.620;2023-02-14T04:26:18;101650.53;;;5.43;67.43
61742;BME280;47650;49.848;9.620;2023-02-14T04:28:54;101644.44;;;5.21;66.49
61742;BME280;47650;49.848;9.620;2023-02-14T04:31:19;101635.53;;;5.23;66.76
61742;BME280;47650;49.848;9.620;2023-02-14T04:33:45;101639.63;;;5.08;66.05
61742;BME280;47650;49.848;9.620;2023-02-14T04:36:20;101648.00;;;4.96;67.50
61742;BME280;47650;49.848;9.620;2023-02-14T04:38:47;101619.59;;;5.06;67.39
61742;BME280;47650;49.848;9.620;2023-02-14T04:41:17;101633.75;;;5.24;68.33
61742;BME280;47650;49.848;9.620;2023-02-14T04:43:44;101627.72;;;5.22;66.93
61742;BME280;47650;49.848;9.620;2023-02-14T04:46:11;101628.38;;;5.05;67.47
61742;BME280;47650;49.848;9.620;2023-02-14T04:48:36;101618.41;;;4.91;67.59
61742;BME280;47650;49.848;9.620;2023-02-14T04:51:02;101625.69;;;5.06;68.34
61742;BME280;47650;49.848;9.620;2023-02-14T04:53:33;101596.25;;;4.75;67.92
61742;BME280;47650;49.848;9.620;2023-02-14T04:56:04;101625.78;;;5.03;67.71
61742;BME280;47650;49.848;9.620;2023-02-14T04:58:34;101616.19;;;4.80;68.55
61742;BME280;47650;49.848;9.620;2023-02-14T05:01:04;101588.84;;;4.62;68.84
61742;BME280;47650;49.848;9.620;2023-02-14T05:03:35;101567.06;;;4.37;68.33
61742;BME280;47650;49.848;9.620;2023-02-14T05:06:12;101621.22;;;4.63;68.55
61742;BME280;47650;49.848;9.620;2023-02-14T05:08:39;101624.84;;;4.60;69.23
61742;BME280;47650;49.848;9.620;2023-02-14T05:11:09;101617.84;;;4.83;69.98
61742;BME280;47650;49.848;9.620;2023-02-14T05:13:40;101583.25;;;4.71;69.51
61742;BME280;47650;49.848;9.620;2023-02-14T05:16:07;101616.72;;;4.19;70.86
61742;BME280;47650;49.848;9.620;2023-02-14T05:18:33;101627.78;;;4.51;70.44
61742;BME280;47650;49.848;9.620;2023-02-14T05:21:06;101629.91;;;4.65;71.00
61742;BME280;47650;49.848;9.620;2023-02-14T05:23:32;101626.66;;;4.09;70.88
61742;BME280;47650;49.848;9.620;2023-02-14T05:26:06;101593.47;;;4.56;70.93
61742;BME280;47650;49.848;9.620;2023-02-14T05:28:38;101621.28;;;4.85;71.26
61742;BME280;47650;49.848;9.620;2023-02-14T05:31:14;101579.44;;;4.79;70.86
61742;BME280;47650;49.848;9.620;2023-02-14T05:33:40;101577.41;;;4.63;69.97
61742;BME280;47650;49.848;9.620;2023-02-14T05:36:06;101569.41;;;4.66;69.96
61742;BME280;47650;49.848;9.620;2023-02-14T05:38:36;101591.44;;;4.86;69.70
61742;BME280;47650;49.848;9.620;2023-02-14T05:41:01;101615.75;;;4.91;69.52
61742;BME280;47650;49.848;9.620;2023-02-14T05:43:36;101610.16;;;5.00;69.20
61742;BME280;47650;49.848;9.620;2023-02-14T05:46:04;101568.03;;;4.80;69.72
61742;BME280;47650;49.848;9.620;2023-02-14T05:48:29;101611.16;;;5.20;69.91
61742;BME280;47650;49.848;9.620;2023-02-14T05:51:02;101600.00;;;4.91;68.18
61742;BME280;47650;49.848;9.620;2023-02-14T05:53:34;101562.28;;;4.92;69.09
61742;BME280;47650;49.848;9.620;2023-02-14T05:56:00;101612.53;;;5.28;69.53
61742;BME280;47650;49.848;9.620;2023-02-14T05:58:43;101594.47;;;5.21;69.63
61742;BME280;47650;49.848;9.620;2023-02-14T06:01:13;101457.66;;;4.36;68.68
61742;BME280;47650;49.848;9.620;2023-02-14T06:03:44;101588.44;;;5.17;68.42
61742;BME280;47650;49.848;9.620;2023-02-14T06:06:09;101608.84;;;5.33;68.21
61742;BME280;47650;49.848;9.620;2023-02-14T06:08:35;101593.19;;;5.09;67.98
61742;BME280;47650;49.848;9.620;2023-02-14T06:11:00;101616.41;;;5.20;67.75
61742;BME280;47650;49.848;9.620;2023-02-14T06:13:34;101604.66;;;5.28;68.41
61742;BME280;47650;49.848;9.620;2023-02-14T06:16:02;101608.22;;;5.05;67.71
61742;BME280;47650;49.848;9.620;2023-02-14T06:18:29;101599.53;;;4.58;69.39
61742;BME280;47650;49.848;9.620;2023-02-14T06:20:56;101593.38;;;4.81;69.73
61742;BME280;47650;49.848;9.620;2023-02-14T06:23:31;101594.13;;;5.06;69.98
61742;BME280;47650;49.848;9.620;2023-02-14T06:25:58;101614.56;;;5.22;70.03
61742;BME280;47650;49.848;9.620;2023-02-14T06:28:26;101619.09;;;5.18;68.27
61742;BME280;47650;49.848;9.620;2023-02-14T06:30:51;101607.94;;;5.12;68.76
61742;BME280;47650;49.848;9.620;2023-02-14T06:33:18;101617.22;;;4.98;68.86
61742;BME280;47650;49.848;9.620;2023-02-14T06:35:44;101589.47;;;4.91;68.54
61742;BME280;47650;49.848;9.620;2023-02-14T06:38:11;101624.34;;;5.18;68.98
61742;BME280;47650;49.848;9.620;2023-02-14T06:40:43;101615.34;;;5.24;68.67
61742;BME280;47650;49.848;9.620;2023-02-14T06:43:08;101620.00;;;5.39;69.11
61742;BME280;47650;49.848;9.620;2023-02-14T06:45:43;101609.00;;;5.30;69.14
61742;BME280;47650;49.848;9.620;2023-02-14T06:48:19;101623.31;;;5.65;68.61
61742;BME280;47650;49.848;9.620;2023-02-14T06:51:07;101625.84;;;5.68;67.60
61742;BME280;47650;49.848;9.620;2023-02-14T06:53:39;101619.50;;;5.72;67.40
61742;BME280;47650;49.848;9.620;2023-02-14T06:56:19;101622.03;;;5.75;67.40
61742;BME280;47650;49.848;9.620;2023-02-14T06:58:44;101615.84;;;5.76;66.44
61742;BME280;47650;49.848;9.620;2023-02-14T07:01:17;101615.25;;;5.90;66.31
61742;BME280;47650;49.848;9.620;2023-02-14T07:03:56;101585.09;;;5.77;66.73
61742;BME280;47650;49.848;9.620;2023-02-14T07:06:23;101620.16;;;5.57;65.92
61742;BME280;47650;49.848;9.620;2023-02-14T07:08:49;101524.19;;;5.02;65.90
61742;BME280;47650;49.848;9.620;2023-02-14T07:11:18;101599.09;;;5.57;66.61
61742;BME280;47650;49.848;9.620;2023-02-14T07:13:55;101617.44;;;5.16;67.43
61742;BME280;47650;49.848;9.620;2023-02-14T07:16:20;101623.06;;;5.28;66.92
61742;BME280;47650;49.848;9.620;2023-02-14T07:18:49;101600.63;;;5.20;67.03
61742;BME280;47650;49.848;9.620;2023-02-14T07:21:22;101620.94;;;5.38;67.48
61742;BME280;47650;49.848;9.620;2023-02-14T07:23:48;101620.94;;;5.38;66.83
61742;BME280;47650;49.848;9.620;2023-02-14T07:26:25;101615.41;;;5.44;67.42
61742;BME280;47650;49.848;9.620;2023-02-14T07:28:57;101592.22;;;5.32;66.89
61742;BME280;47650;49.848;9.620;2023-02-14T07:31:24;101604.66;;;5.28;66.73
61742;BME280;47650;49.848;9.620;2023-02-14T07:34:04;101603.56;;;4.90;67.80
61742;BME280;47650;49.848;9.620;2023-02-14T07:36:30;101617.56;;;4.90;68.05
61742;BME280;47650;49.848;9.620;2023-02-14T07:38:55;101619.34;;;4.90;68.05
61742;BME280;47650;49.848;9.620;2023-02-14T07:41:22;101613.09;;;5.15;68.79
61742;BME280;47650;49.848;9.620;2023-02-14T07:43:56;101619.94;;;5.19;68.17
61742;BME280;47650;49.848;9.620;2023-02-14T07:46:31;101611.88;;;5.23;67.41
61742;BME280;47650;49.848;9.620;2023-02-14T07:48:56;101604.03;;;4.78;68.43
61742;BME280;47650;49.848;9.620;2023-02-14T07:51:21;101614.00;;;4.92;68.21
61742;BME280;47650;49.848;9.620;2023-02-14T07:53:46;101605.25;;;4.91;67.91
61742;BME280;47650;49.848;9.620;2023-02-14T07:56:22;101623.22;;;4.32;68.42
61742;BME280;47650;49.848;9.620;2023-02-14T07:58:50;101640.00;;;4.76;68.72
61742;BME280;47650;49.848;9.620;2023-02-14T08:01:20;101622.97;;;4.86;68.46
61742;BME280;47650;49.848;9.620;2023-02-14T08:03:46;101588.13;;;4.35;69.05
61742;BME280;47650;49.848;9.620;2023-02-14T08:06:20;101632.53;;;4.65;68.76
61742;BME280;47650;49.848;9.620;2023-02-14T08:08:55;101620.25;;;4.65;69.02
61742;BME280;47650;49.848;9.620;2023-02-14T08:11:29;101623.63;;;4.69;68.33
61742;BME280;47650;49.848;9.620;2023-02-14T08:14:28;101625.06;;;4.78;68.74
61742;BME280;47650;49.848;9.620;2023-02-14T08:16:55;101636.38;;;4.80;68.83
61742;BME280;47650;49.848;9.620;2023-02-14T08:19:20;101630.00;;;4.62;69.46
61742;BME280;47650;49.848;9.620;2023-02-14T08:21:56;101556.81;;;4.29;69.30
61742;BME280;47650;49.848;9.620;2023-02-14T08:24:21;101626.31;;;5.13;68.71
61742;BME280;47650;49.848;9.620;2023-02-14T08:26:46;101605.59;;;5.05;68.44
61742;BME280;47650;49.848;9.620;2023-02-14T08:29:21;101620.09;;;5.16;67.64
61742;BME280;47650;49.848;9.620;2023-02-14T08:31:47;101608.75;;;5.14;67.77
61742;BME280;47650;49.848;9.620;2023-02-14T08:34:18;101602.81;;;5.08;66.71
61742;BME280;47650;49.848;9.620;2023-02-14T08:36:45;101609.72;;;5.33;66.72
61742;BME280;47650;49.848;9.620;2023-02-14T08:39:21;101512.72;;;4.83;66.19
61742;BME280;47650;49.848;9.620;2023-02-14T08:42:05;101614.81;;;5.58;65.80
61742;BME280;47650;49.848;9.620;2023-02-14T08:44:31;101596.75;;;5.51;65.06
61742;BME280;47650;49.848;9.620;2023-02-14T08:46:59;101580.75;;;5.55;64.28
61742;BME280;47650;49.848;9.620;2023-02-14T08:49:24;101618.06;;;5.65;64.89
61742;BME280;47650;49.848;9.620;2023-02-14T08:51:54;101572.84;;;5.76;64.97
61742;BME280;47650;49.848;9.620;2023-02-14T08:54:20;101598.72;;;6.07;64.23
61742;BME280;47650;49.848;9.620;2023-02-14T08:56:54;101620.78;;;5.41;64.78
61742;BME280;47650;49.848;9.620;2023-02-14T08:59:31;101589.00;;;5.25;65.99
61742;BME280;47650;49.848;9.620;2023-02-14T09:01:57;101579.88;;;5.34;65.36
61742;BME280;47650;49.848;9.620;2023-02-14T09:04:33;101610.66;;;5.32;65.60
61742;BME280;47650;49.848;9.620;2023-02-14T09:07:05;101582.03;;;5.02;66.25
61742;BME280;47650;49.848;9.620;2023-02-14T09:09:31;101610.53;;;5.35;65.92
61742;BME280;47650;49.848;9.620;2023-02-14T09:12:05;101610.22;;;5.63;65.81
61742;BME280;47650;49.848;9.620;2023-02-14T09:14:42;101569.97;;;5.19;65.59
61742;BME280;47650;49.848;9.620;2023-02-14T09:17:09;101613.38;;;4.85;66.83
61742;BME280;47650;49.848;9.620;2023-02-14T09:19:35;101617.91;;;5.25;66.34
61742;BME280;47650;49.848;9.620;2023-02-14T09:22:08;101609.78;;;5.54;65.73
61742;BME280;47650;49.848;9.620;2023-02-14T09:24:48;101606.72;;;5.42;65.51
61742;BME280;47650;49.848;9.620;2023-02-14T09:27:19;101596.16;;;4.78;66.70
61742;BME280;47650;49.848;9.620;2023-02-14T09:29:44;101599.09;;;5.14;66.53
61742;BME280;47650;49.848;9.620;2023-02-14T09:32:11;101605.50;;;5.29;65.84
61742;BME280;47650;49.848;9.620;2023-02-14T09:34:36;101612.06;;;5.61;65.89
61742;BME280;47650;49.848;9.620;2023-02-14T09:37:22;101612.06;;;6.04;65.01
61742;BME280;47650;49.848;9.620;2023-02-14T09:39:58;101617.41;;;5.60;64.51
61742;BME280;47650;49.848;9.620;2023-02-14T09:45:07;101612.53;;;5.51;64.71
61742;BME280;47650;49.848;9.620;2023-02-14T09:47:57;101612.16;;;5.80;64.11
61742;BME280;47650;49.848;9.620;2023-02-14T09:50:29;101611.84;;;6.09;64.67
61742;BME280;47650;49.848;9.620;2023-02-14T09:56:18;101601.25;;;6.10;63.45
61742;BME280;47650;49.848;9.620;2023-02-14T10:02:32;101599.38;;;6.12;63.50
61742;BME280;47650;49.848;9.620;2023-02-14T10:05:19;101594.41;;;6.46;63.22
61742;BME280;47650;49.848;9.620;2023-02-14T10:10:43;101595.69;;;6.37;61.45
61742;BME280;47650;49.848;9.620;2023-02-14T10:13:37;101599.78;;;6.24;61.06
61742;BME280;47650;49.848;9.620;2023-02-14T10:16:16;101576.03;;;6.44;61.27
61742;BME280;47650;49.848;9.620;2023-02-14T10:18:50;101586.06;;;6.74;61.11
61742;BME280;47650;49.848;9.620;2023-02-14T10:22:17;101590.81;;;7.04;60.23
61742;BME280;47650;49.848;9.620;2023-02-14T10:24:30;101588.03;;;6.31;59.65
61742;BME280;47650;49.848;9.620;2023-02-14T10:27:31;101565.53;;;6.81;60.56
61742;BME280;47650;49.848;9.620;2023-02-14T10:30:13;101582.53;;;7.11;59.63
61742;BME280;47650;49.848;9.620;2023-02-14T10:32:49;101577.03;;;7.33;59.70
61742;BME280;47650;49.848;9.620;2023-02-14T10:35:45;101582.44;;;7.49;59.15
61742;BME280;47650;49.848;9.620;2023-02-14T10:41:15;101584.75;;;7.02;60.25
61742;BME280;47650;49.848;9.620;2023-02-14T10:43:56;101576.91;;;7.00;60.15
61742;BME280;47650;49.848;9.620;2023-02-14T10:49:42;101570.06;;;7.15;59.32
61742;BME280;47650;49.848;9.620;2023-02-14T10:52:32;101567.03;;;7.23;59.18
61742;BME280;47650;49.848;9.620;2023-02-14T10:55:17;101564.00;;;7.13;58.88
61742;BME280;47650;49.848;9.620;2023-02-14T10:57:50;101555.06;;;6.79;59.15
61742;BME280;47650;49.848;9.620;2023-02-14T11:00:31;101492.06;;;6.17;59.63
61742;BME280;47650;49.848;9.620;2023-02-14T11:03:00;101544.91;;;5.94;61.17
61742;BME280;47650;49.848;9.620;2023-02-14T11:05:44;101360.88;;;4.89;61.69
61742;BME280;47650;49.848;9.620;2023-02-14T11:08:25;101559.97;;;6.68;61.68
61742;BME280;47650;49.848;9.620;2023-02-14T11:10:56;101555.13;;;6.77;60.14
61742;BME280;47650;49.848;9.620;2023-02-14T11:13:35;101563.63;;;6.46;60.70
61742;BME280;47650;49.848;9.620;2023-02-14T11:16:05;101533.72;;;6.47;60.68
61742;BME280;47650;49.848;9.620;2023-02-14T11:18:32;101530.22;;;6.28;61.18
61742;BME280;47650;49.848;9.620;2023-02-14T11:21:07;101547.88;;;6.26;61.28
61742;BME280;47650;49.848;9.620;2023-02-14T11:23:40;101533.88;;;6.44;61.73
61742;BME280;47650;49.848;9.620;2023-02-14T11:26:10;101533.34;;;6.74;60.71
61742;BME280;47650;49.848;9.620;2023-02-14T11:31:34;101529.09;;;6.71;60.71
61742;BME280;47650;49.848;9.620;2023-02-14T11:34:04;101533.38;;;6.91;60.17
61742;BME280;47650;49.848;9.620;2023-02-14T11:36:39;101500.03;;;6.16;60.86
61742;BME280;47650;49.848;9.620;2023-02-14T11:39:27;101518.16;;;6.79;60.59
61742;BME280;47650;49.848;9.620;2023-02-14T11:41:57;101519.16;;;7.30;60.00
61742;BME280;47650;49.848;9.620;2023-02-14T11:44:33;101517.41;;;6.20;60.72
61742;BME280;47650;49.848;9.620;2023-02-14T11:49:58;101503.34;;;7.30;59.59
61742;BME280;47650;49.848;9.620;2023-02-14T11:52:53;101488.19;;;7.34;58.40
61742;BME280;47650;49.848;9.620;2023-02-14T11:55:30;101498.88;;;7.66;57.76
61742;BME280;47650;49.848;9.620;2023-02-14T11:58:02;101502.66;;;7.78;57.69
61742;BME280;47650;49.848;9.620;2023-02-14T12:00:30;101484.53;;;7.19;58.37
61742;BME280;47650;49.848;9.620;2023-02-14T12:03:16;101489.63;;;7.90;58.98
61742;BME280;47650;49.848;9.620;2023-02-14T12:05:54;101490.78;;;8.02;56.83
61742;BME280;47650;49.848;9.620;2023-02-14T12:08:31;101478.28;;;7.72;56.82
61742;BME280;47650;49.848;9.620;2023-02-14T12:11:20;101482.78;;;7.70;57.88
61742;BME280;47650;49.848;9.620;2023-02-14T12:13:55;101440.63;;;7.18;58.01
61742;BME280;47650;49.848;9.620;2023-02-14T12:16:33;101476.53;;;7.38;59.01
61742;BME280;47650;49.848;9.620;2023-02-14T12:19:30;101440.06;;;7.46;58.37
61742;BME280;47650;49.848;9.620;2023-02-14T12:22:04;101460.97;;;7.67;57.88
61742;BME280;47650;49.848;9.620;2023-02-14T12:27:22;101468.44;;;7.92;58.03
61742;BME280;47650;49.848;9.620;2023-02-14T12:30:13;101471.53;;;8.32;56.89
61742;BME280;47650;49.848;9.620;2023-02-14T12:32:48;101465.63;;;8.44;55.90
61742;BME280;47650;49.848;9.620;2023-02-14T12:35:27;101466.47;;;8.45;56.36
61742;BME280;47650;49.848;9.620;2023-02-14T12:41:16;101440.84;;;8.14;57.58
61742;BME280;47650;49.848;9.620;2023-02-14T12:47:00;101444.00;;;8.04;56.02
61742;BME280;47650;49.848;9.620;2023-02-14T12:53:15;101458.00;;;7.73;57.10
61742;BME280;47650;49.848;9.620;2023-02-14T13:05:25;101441.63;;;7.66;58.63
61742;BME280;47650;49.848;9.620;2023-02-14T13:22:39;101408.78;;;8.20;57.09
61742;BME280;47650;49.848;9.620;2023-02-14T13:25:28;101423.56;;;8.24;56.20
61742;BME280;47650;49.848;9.620;2023-02-14T13:28:05;101420.88;;;8.08;55.74
61742;BME280;47650;49.848;9.620;2023-02-14T13:30:37;101424.13;;;7.97;56.49
61742;BME280;47650;49.848;9.620;2023-02-14T13:33:43;101419.88;;;8.10;57.18
61742;BME280;47650;49.848;9.620;2023-02-14T13:36:10;101419.38;;;8.20;57.70
61742;BME280;47650;49.848;9.620;2023-02-14T13:38:42;101391.59;;;8.13;56.58
61742;BME280;47650;49.848;9.620;2023-02-14T13:41:10;101411.25;;;8.39;57.01
61742;BME280;47650;49.848;9.620;2023-02-14T13:43:57;101416.28;;;8.59;56.50
61742;BME280;47650;49.848;9.620;2023-02-14T13:51:52;101413.78;;;7.61;56.59
61742;BME280;47650;49.848;9.620;2023-02-14T13:54:45;101358.41;;;7.10;58.67
61742;BME280;47650;49.848;9.620;2023-02-14T13:57:30;101420.44;;;7.34;58.41
61742;BME280;47650;49.848;9.620;2023-02-14T14:00:27;101317.72;;;6.63;59.03
61742;BME280;47650;49.848;9.620;2023-02-14T14:03:02;101421.19;;;7.37;59.06
61742;BME280;47650;49.848;9.620;2023-02-14T14:11:04;101389.78;;;7.81;57.77
61742;BME280;47650;49.848;9.620;2023-02-14T14:14:02;101400.44;;;7.80;57.22
61742;BME280;47650;49.848;9.620;2023-02-14T14:16:37;101364.78;;;7.39;58.09
61742;BME280;47650;49.848;9.620;2023-02-14T14:21:43;101345.41;;;6.89;59.91
61742;BME280;47650;49.848;9.620;2023-02-14T14:24:30;101406.63;;;7.29;59.46
61742;BME280;47650;49.848;9.620;2023-02-14T14:27:15;101361.50;;;6.83;59.19
61742;BME280;47650;49.848;9.620;2023-02-14T14:29:48;101393.78;;;6.88;60.52
61742;BME280;47650;49.848;9.620;2023-02-14T14:32:28;101380.44;;;6.91;60.66
61742;BME280;47650;49.848;9.620;2023-02-14T14:34:58;101392.81;;;7.24;60.38
61742;BME280;47650;49.848;9.620;2023-02-14T14:37:51;101390.66;;;7.15;59.58
61742;BME280;47650;49.848;9.620;2023-02-14T14:40:33;101392.84;;;7.07;60.27
61742;BME280;47650;49.848;9.620;2023-02-14T14:43:23;101373.31;;;6.93;60.12
61742;BME280;47650;49.848;9.620;2023-02-14T14:45:51;101352.84;;;6.46;60.87
61742;BME280;47650;49.848;9.620;2023-02-14T14:48:30;101392.47;;;6.80;61.92
61742;BME280;47650;49.848;9.620;2023-02-14T14:51:16;101389.53;;;6.68;61.57
61742;BME280;47650;49.848;9.620;2023-02-14T14:53:47;101390.84;;;6.77;61.75
61742;BME280;47650;49.848;9.620;2023-02-14T14:56:23;101378.28;;;7.00;61.34
61742;BME280;47650;49.848;9.620;2023-02-14T14:58:49;101372.22;;;7.15;60.87
61742;BME280;47650;49.848;9.620;2023-02-14T15:01:50;101370.66;;;6.93;60.80
61742;BME280;47650;49.848;9.620;2023-02-14T15:04:31;101371.50;;;6.76;61.34
61742;BME280;47650;49.848;9.620;2023-02-14T15:07:33;101365.69;;;7.05;61.64
61742;BME280;47650;49.848;9.620;2023-02-14T15:10:24;101370.50;;;6.96;61.33
61742;BME280;47650;49.848;9.620;2023-02-14T15:12:57;101365.84;;;7.02;61.57
61742;BME280;47650;49.848;9.620;2023-02-14T15:15:47;101361.38;;;6.86;61.40
61742;BME280;47650;49.848;9.620;2023-02-14T15:18:19;101328.97;;;6.32;62.57
61742;BME280;47650;49.848;9.620;2023-02-14T15:20:50;101346.66;;;6.47;62.92
61742;BME280;47650;49.848;9.620;2023-02-14T15:23:21;101362.13;;;5.99;63.86
61742;BME280;47650;49.848;9.620;2023-02-14T15:25:48;101323.03;;;6.09;62.80